createdAt,value
2019-02-21T00:00:56.179Z,16.23
2019-02-21T00:02:11.759Z,16.73
2019-02-21T00:03:17.168Z,17.05
2019-02-21T00:04:22.090Z,16.90
2019-02-21T00:05:27.028Z,17.45
2019-02-21T00:06:31.992Z,16.95
2019-02-21T00:07:36.906Z,16.42
2019-02-21T00:08:41.913Z,18.12
2019-02-21T00:09:46.896Z,17.10
2019-02-21T00:10:51.888Z,15.40
2019-02-21T00:11:57.163Z,17.73
2019-02-21T00:13:03.462Z,17.05
2019-02-21T00:14:08.442Z,16.90
2019-02-21T00:15:13.550Z,16.95
2019-02-21T00:16:18.730Z,17.30
2019-02-21T00:17:23.671Z,16.60
2019-02-21T00:18:28.726Z,16.25
2019-02-21T00:19:33.736Z,16.32
2019-02-21T00:20:39.222Z,16.55
2019-02-21T00:21:44.125Z,17.15
2019-02-21T00:22:49.119Z,16.30
2019-02-21T00:23:54.210Z,18.02
2019-02-21T00:24:59.131Z,16.45
2019-02-21T00:26:04.181Z,16.82
2019-02-21T00:27:09.952Z,16.15
2019-02-21T00:28:15.044Z,18.23
2019-02-21T00:29:19.940Z,15.85
2019-02-21T00:30:34.901Z,15.95
2019-02-21T00:31:31.574Z,16.90
2019-02-21T00:32:36.580Z,15.80
2019-02-21T00:33:41.530Z,16.55
2019-02-21T00:34:46.424Z,16.70
2019-02-21T00:35:51.925Z,15.60
2019-02-21T00:36:56.894Z,14.03
2019-02-21T00:38:01.843Z,16.37
2019-02-21T00:39:07.260Z,16.17
2019-02-21T00:40:12.595Z,15.20
2019-02-21T00:41:17.596Z,15.65
2019-02-21T00:42:22.511Z,16.45
2019-02-21T00:43:27.411Z,16.82
2019-02-21T00:44:32.417Z,16.02
2019-02-21T00:45:37.329Z,15.35
2019-02-21T00:46:42.304Z,15.38
2019-02-21T00:47:47.230Z,15.85
2019-02-21T00:48:52.125Z,14.80
2019-02-21T00:49:57.730Z,15.60
2019-02-21T00:51:02.946Z,16.40
2019-02-21T00:52:07.871Z,14.85
2019-02-21T00:53:13.209Z,17.95
2019-02-21T00:54:18.595Z,15.65
2019-02-21T00:55:23.590Z,15.83
2019-02-21T00:56:28.599Z,15.90
2019-02-21T00:57:34.111Z,15.45
2019-02-21T00:58:39.559Z,15.55
2019-02-21T00:59:44.560Z,14.40
2019-02-21T01:00:49.702Z,14.80
2019-02-21T01:01:54.626Z,14.68
2019-02-21T01:03:00.111Z,15.78
2019-02-21T01:04:05.084Z,14.05
2019-02-21T01:05:10.162Z,14.65
2019-02-21T01:06:15.152Z,15.25
2019-02-21T01:07:20.082Z,15.50
2019-02-21T01:08:25.078Z,15.20
2019-02-21T01:09:30.096Z,15.40
2019-02-21T01:10:35.362Z,16.17
2019-02-21T01:11:40.896Z,15.35
2019-02-21T01:12:45.999Z,14.85
2019-02-21T01:13:50.925Z,16.50
2019-02-21T01:14:55.913Z,15.20
2019-02-21T01:16:00.868Z,15.40
2019-02-21T01:17:05.892Z,14.55
2019-02-21T01:18:10.931Z,14.30
2019-02-21T01:19:15.934Z,13.32
2019-02-21T01:20:20.934Z,14.55
2019-02-21T01:21:26.094Z,15.05
2019-02-21T01:22:31.026Z,13.30
2019-02-21T01:23:36.023Z,14.90
2019-02-21T01:24:41.134Z,14.75
2019-02-21T01:25:46.123Z,14.63
2019-02-21T01:26:51.027Z,14.15
2019-02-21T01:27:56.065Z,14.35
2019-02-21T01:29:01.135Z,14.23
2019-02-21T01:30:06.570Z,14.53
2019-02-21T01:31:11.521Z,13.83
2019-02-21T01:32:16.643Z,14.05
2019-02-21T01:33:21.690Z,15.05
2019-02-21T01:34:27.119Z,14.87
2019-02-21T01:35:32.174Z,14.50
2019-02-21T01:36:37.157Z,13.75
2019-02-21T01:37:42.189Z,14.68
2019-02-21T01:38:47.399Z,13.30
2019-02-21T01:41:57.762Z,13.32
2019-02-21T01:43:02.712Z,13.22
2019-02-21T01:44:07.769Z,14.05
2019-02-21T01:45:12.976Z,13.50
2019-02-21T01:46:18.720Z,13.50
2019-02-21T01:47:23.796Z,14.38
2019-02-21T01:48:29.629Z,14.63
2019-02-21T01:49:35.042Z,13.45
2019-02-21T01:50:40.086Z,12.80
2019-02-21T01:51:45.163Z,13.10
2019-02-21T01:52:50.766Z,13.18
2019-02-21T01:53:55.789Z,14.20
2019-02-21T01:55:01.261Z,13.22
2019-02-21T01:56:06.662Z,12.85
2019-02-21T01:57:11.800Z,14.38
2019-02-21T01:58:17.251Z,13.43
2019-02-21T01:59:22.381Z,13.78
2019-02-21T02:00:28.164Z,14.15
2019-02-21T02:01:33.829Z,14.87
2019-02-21T02:02:39.206Z,14.30
2019-02-21T02:03:44.745Z,13.15
2019-02-21T02:04:49.797Z,13.53
2019-02-21T02:05:54.789Z,13.40
2019-02-21T02:06:59.869Z,14.07
2019-02-21T02:08:04.955Z,14.33
2019-02-21T02:09:12.802Z,13.03
2019-02-21T02:10:18.167Z,12.75
2019-02-21T02:11:23.186Z,13.00
2019-02-21T02:12:28.291Z,14.98
2019-02-21T02:13:33.320Z,13.20
2019-02-21T02:14:38.318Z,14.90
2019-02-21T02:15:43.361Z,13.60
2019-02-21T02:16:48.409Z,13.75
2019-02-21T02:17:53.383Z,13.85
2019-02-21T02:18:58.713Z,13.65
2019-02-21T02:20:04.245Z,14.40
2019-02-21T02:21:09.368Z,14.10
2019-02-21T02:22:14.480Z,13.40
2019-02-21T02:23:19.603Z,14.40
2019-02-21T02:24:26.873Z,14.40
2019-02-21T02:25:32.147Z,14.05
2019-02-21T02:26:37.350Z,12.98
2019-02-21T02:27:42.741Z,13.38
2019-02-21T02:28:47.790Z,13.70
2019-02-21T02:29:53.153Z,14.45
2019-02-21T02:30:58.423Z,13.80
2019-02-21T02:32:03.519Z,13.62
2019-02-21T02:33:08.740Z,13.72
2019-02-21T02:34:14.107Z,13.40
2019-02-21T02:35:19.246Z,13.43
2019-02-21T02:36:24.574Z,13.43
2019-02-21T02:37:29.596Z,14.43
2019-02-21T02:38:34.809Z,12.88
2019-02-21T02:39:40.043Z,13.78
2019-02-21T02:40:44.977Z,14.40
2019-02-21T02:41:50.295Z,14.73
2019-02-21T02:42:55.651Z,13.55
2019-02-21T02:44:00.696Z,12.73
2019-02-21T02:45:06.501Z,12.98
2019-02-21T02:46:11.546Z,14.95
2019-02-21T02:47:16.562Z,13.62
2019-02-21T02:48:21.566Z,13.85
2019-02-21T02:49:26.566Z,14.70
2019-02-21T02:50:31.695Z,14.53
2019-02-21T02:51:36.799Z,14.60
2019-02-21T02:52:41.923Z,14.83
2019-02-21T02:53:47.143Z,13.93
2019-02-21T02:54:52.280Z,13.58
2019-02-21T02:55:57.261Z,14.18
2019-02-21T02:57:02.371Z,12.68
2019-02-21T02:58:08.340Z,14.00
2019-02-21T02:59:13.304Z,15.20
2019-02-21T03:00:18.799Z,13.58
2019-02-21T03:01:34.467Z,13.75
2019-02-21T03:02:31.019Z,13.20
2019-02-21T03:03:36.402Z,14.63
2019-02-21T03:04:41.616Z,12.55
2019-02-21T03:05:46.963Z,14.47
2019-02-21T03:06:51.936Z,14.03
2019-02-21T03:07:56.895Z,14.50
2019-02-21T03:09:02.532Z,14.10
2019-02-21T03:10:09.139Z,13.78
2019-02-21T03:11:14.274Z,14.60
2019-02-21T03:12:19.349Z,14.40
2019-02-21T03:13:24.609Z,14.63
2019-02-21T03:14:29.991Z,14.18
2019-02-21T03:15:35.317Z,14.00
2019-02-21T03:16:40.385Z,15.00
2019-02-21T03:17:45.496Z,14.93
2019-02-21T03:18:50.485Z,14.50
2019-02-21T03:19:56.071Z,14.55
2019-02-21T03:21:01.129Z,14.60
2019-02-21T03:22:06.216Z,13.55
2019-02-21T03:23:11.538Z,13.98
2019-02-21T03:24:16.853Z,15.45
2019-02-21T03:25:22.027Z,13.18
2019-02-21T03:26:27.077Z,12.90
2019-02-21T03:27:32.475Z,15.65
2019-02-21T03:28:37.506Z,13.85
2019-02-21T03:29:43.175Z,13.88
2019-02-21T03:30:48.497Z,14.23
2019-02-21T03:31:55.847Z,13.88
2019-02-21T03:33:00.691Z,13.93
2019-02-21T03:34:05.863Z,13.13
2019-02-21T03:35:11.024Z,16.02
2019-02-21T03:36:16.076Z,15.15
2019-02-21T03:37:21.188Z,15.63
2019-02-21T03:38:26.783Z,14.03
2019-02-21T03:39:33.204Z,14.18
2019-02-21T03:40:38.275Z,14.40
2019-02-21T03:41:43.718Z,14.30
2019-02-21T03:42:48.606Z,13.53
2019-02-21T03:43:53.643Z,12.60
2019-02-21T03:44:58.711Z,14.03
2019-02-21T03:46:03.737Z,12.60
2019-02-21T03:47:08.860Z,14.15
2019-02-21T03:48:14.453Z,14.15
2019-02-21T03:49:19.589Z,14.95
2019-02-21T03:50:25.057Z,14.60
2019-02-21T03:51:30.431Z,14.68
2019-02-21T03:52:35.860Z,13.43
2019-02-21T03:53:41.191Z,15.18
2019-02-21T03:54:46.396Z,14.60
2019-02-21T03:55:51.817Z,13.60
2019-02-21T03:56:56.821Z,14.28
2019-02-21T03:58:02.000Z,12.82
2019-02-21T03:59:07.453Z,14.30
2019-02-21T04:00:12.644Z,14.05
2019-02-21T04:01:17.743Z,14.30
2019-02-21T04:02:22.859Z,14.73
2019-02-21T04:03:28.633Z,13.20
2019-02-21T04:04:33.832Z,15.18
2019-02-21T04:05:39.279Z,15.05
2019-02-21T04:06:44.712Z,13.50
2019-02-21T04:07:49.878Z,15.50
2019-02-21T04:08:54.844Z,14.68
2019-02-21T04:10:00.514Z,14.53
2019-02-21T04:11:05.696Z,15.13
2019-02-21T04:12:10.961Z,13.75
2019-02-21T04:13:16.039Z,13.43
2019-02-21T04:14:21.302Z,14.55
2019-02-21T04:15:26.259Z,13.48
2019-02-21T04:16:31.360Z,14.25
2019-02-21T04:17:36.417Z,13.83
2019-02-21T04:18:41.858Z,15.15
2019-02-21T04:19:46.970Z,15.80
2019-02-21T04:20:51.945Z,14.80
2019-02-21T04:21:57.103Z,14.68
2019-02-21T04:23:02.384Z,13.45
2019-02-21T04:24:07.496Z,14.70
2019-02-21T04:25:12.576Z,14.58
2019-02-21T04:26:17.547Z,13.98
2019-02-21T04:27:22.490Z,14.87
2019-02-21T04:28:27.893Z,14.90
2019-02-21T04:29:34.044Z,15.70
2019-02-21T04:30:39.645Z,14.30
2019-02-21T04:31:44.764Z,16.12
2019-02-21T04:32:50.060Z,14.90
2019-02-21T04:33:55.065Z,16.12
2019-02-21T04:35:00.482Z,15.70
2019-02-21T04:36:05.518Z,15.03
2019-02-21T04:37:10.807Z,13.70
2019-02-21T04:38:15.839Z,15.98
2019-02-21T04:39:20.901Z,15.08
2019-02-21T04:40:26.354Z,15.43
2019-02-21T04:41:31.433Z,14.95
2019-02-21T04:42:36.784Z,15.80
2019-02-21T04:43:41.813Z,15.28
2019-02-21T04:44:47.031Z,15.00
2019-02-21T04:45:52.405Z,15.83
2019-02-21T04:46:57.448Z,19.35
2019-02-21T04:48:02.698Z,16.30
2019-02-21T04:49:07.750Z,16.48
2019-02-21T04:50:12.060Z,15.53
2019-02-21T04:51:17.074Z,15.90
2019-02-21T04:52:22.273Z,16.50
2019-02-21T04:53:27.267Z,16.00
2019-02-21T04:54:32.584Z,15.65
2019-02-21T04:55:37.651Z,15.68
2019-02-21T04:56:42.608Z,16.27
2019-02-21T04:57:47.736Z,15.58
2019-02-21T04:58:52.992Z,15.72
2019-02-21T04:59:58.084Z,15.85
2019-02-21T05:01:03.056Z,17.05
2019-02-21T05:02:08.863Z,14.60
2019-02-21T05:03:14.257Z,16.77
2019-02-21T05:04:19.275Z,15.50
2019-02-21T05:05:24.561Z,15.53
2019-02-21T05:06:29.742Z,16.52
2019-02-21T05:07:34.909Z,18.02
2019-02-21T05:08:39.894Z,16.12
2019-02-21T05:09:57.069Z,15.93
2019-02-21T05:10:51.891Z,16.97
2019-02-21T05:11:57.512Z,16.75
2019-02-21T05:13:02.910Z,16.90
2019-02-21T05:14:07.981Z,17.23
2019-02-21T05:15:14.198Z,17.05
2019-02-21T05:16:19.825Z,15.28
2019-02-21T05:17:24.913Z,18.55
2019-02-21T05:18:30.329Z,17.85
2019-02-21T05:19:35.383Z,16.90
2019-02-21T05:20:40.432Z,17.12
2019-02-21T05:21:46.393Z,17.90
2019-02-21T05:22:51.423Z,16.67
2019-02-21T05:23:56.501Z,17.52
2019-02-21T05:25:01.807Z,16.95
2019-02-21T05:26:08.151Z,17.00
2019-02-21T05:27:17.212Z,17.87
2019-02-21T05:28:28.650Z,16.67
2019-02-21T05:29:34.431Z,19.05
2019-02-21T05:30:39.810Z,17.00
2019-02-21T05:31:52.064Z,17.55
2019-02-21T05:33:15.247Z,16.12
2019-02-21T05:34:48.263Z,16.12
2019-02-21T05:36:15.240Z,17.77
2019-02-21T05:37:48.896Z,16.40
2019-02-21T05:39:19.268Z,18.00
2019-02-21T05:40:47.367Z,18.50
2019-02-21T05:41:59.654Z,16.85
2019-02-21T05:43:21.583Z,17.00
2019-02-21T05:44:34.807Z,18.23
2019-02-21T05:45:57.995Z,17.75
2019-02-21T05:47:22.248Z,18.00
2019-02-21T05:48:33.215Z,17.32
2019-02-21T05:49:45.886Z,17.25
2019-02-21T05:51:13.918Z,18.65
2019-02-21T05:52:33.009Z,18.27
2019-02-21T05:54:09.094Z,17.00
2019-02-21T05:55:19.875Z,15.70
2019-02-21T05:57:02.350Z,18.17
2019-02-21T05:58:24.964Z,18.65
2019-02-21T05:59:47.221Z,17.95
2019-02-21T06:01:01.442Z,18.77
2019-02-21T06:02:15.760Z,19.00
2019-02-21T06:03:39.777Z,19.32
2019-02-21T06:04:54.623Z,19.70
2019-02-21T06:06:18.651Z,20.97
2019-02-21T06:07:48.683Z,19.17
2019-02-21T06:09:00.250Z,17.40
2019-02-21T06:10:24.439Z,17.17
2019-02-21T06:11:35.776Z,18.10
2019-02-21T06:12:53.928Z,19.02
2019-02-21T06:14:17.008Z,20.23
2019-02-21T06:15:34.888Z,18.52
2019-02-21T06:17:14.695Z,20.30
2019-02-21T06:18:29.257Z,18.87
2019-02-21T06:19:49.940Z,18.70
2019-02-21T06:21:02.844Z,18.50
2019-02-21T06:22:36.345Z,19.27
2019-02-21T06:23:59.290Z,19.67
2019-02-21T06:25:23.429Z,19.77
2019-02-21T06:26:33.853Z,19.17
2019-02-21T06:28:00.808Z,19.90
2019-02-21T06:29:09.760Z,17.75
2019-02-21T06:30:30.035Z,19.57
2019-02-21T06:31:35.274Z,19.12
2019-02-21T06:32:40.895Z,21.87
2019-02-21T06:33:46.202Z,20.70
2019-02-21T06:34:52.532Z,20.08
2019-02-21T06:35:57.937Z,18.98
2019-02-21T06:37:02.945Z,21.52
2019-02-21T06:38:08.371Z,20.48
2019-02-21T06:39:13.732Z,19.37
2019-02-21T06:40:19.245Z,18.95
2019-02-21T06:41:24.597Z,20.97
2019-02-21T06:42:30.018Z,21.37
2019-02-21T06:43:35.391Z,21.23
2019-02-21T06:44:40.429Z,19.30
2019-02-21T06:45:45.655Z,20.32
2019-02-21T06:46:50.713Z,19.40
2019-02-21T06:47:55.875Z,21.37
2019-02-21T06:49:01.013Z,18.62
2019-02-21T06:50:06.415Z,19.55
2019-02-21T06:51:11.645Z,20.12
2019-02-21T06:52:17.428Z,20.82
2019-02-21T06:53:22.616Z,21.15
2019-02-21T06:54:28.407Z,20.90
2019-02-21T06:55:34.071Z,20.23
2019-02-21T06:56:39.703Z,20.25
2019-02-21T06:57:44.966Z,20.80
2019-02-21T06:58:50.237Z,18.73
2019-02-21T06:59:55.445Z,20.62
2019-02-21T07:01:01.003Z,20.45
2019-02-21T07:02:06.137Z,20.70
2019-02-21T07:03:15.897Z,20.60
2019-02-21T07:04:18.445Z,20.35
2019-02-21T07:05:23.804Z,20.12
2019-02-21T07:06:32.076Z,20.90
2019-02-21T07:07:35.695Z,20.17
2019-02-21T07:08:40.740Z,20.20
2019-02-21T07:09:45.779Z,22.07
2019-02-21T07:10:50.986Z,20.70
2019-02-21T07:11:56.020Z,20.30
2019-02-21T07:13:01.384Z,21.40
2019-02-21T07:14:06.415Z,23.40
2019-02-21T07:15:11.952Z,22.13
2019-02-21T07:16:17.629Z,20.35
2019-02-21T07:17:22.879Z,19.12
2019-02-21T07:18:28.880Z,21.90
2019-02-21T07:19:34.206Z,22.37
2019-02-21T07:20:39.827Z,19.75
2019-02-21T07:21:45.139Z,21.73
2019-02-21T07:22:50.313Z,21.15
2019-02-21T07:23:55.619Z,18.98
2019-02-21T07:25:05.817Z,19.40
2019-02-21T07:26:13.809Z,19.75
2019-02-21T07:27:19.032Z,20.57
2019-02-21T07:28:23.998Z,19.60
2019-02-21T07:29:29.388Z,19.52
2019-02-21T07:30:34.833Z,20.75
2019-02-21T07:31:39.778Z,18.98
2019-02-21T07:32:44.863Z,20.75
2019-02-21T07:33:50.352Z,20.45
2019-02-21T07:34:55.644Z,19.25
2019-02-21T07:36:01.354Z,20.60
2019-02-21T07:37:17.783Z,20.15
2019-02-21T07:38:13.292Z,20.90
2019-02-21T07:39:20.697Z,21.15
2019-02-21T07:40:25.158Z,20.80
2019-02-21T07:41:30.170Z,19.87
2019-02-21T07:42:35.479Z,20.52
2019-02-21T07:43:40.603Z,19.85
2019-02-21T07:44:45.812Z,20.00
2019-02-21T07:45:50.923Z,19.50
2019-02-21T07:46:55.912Z,20.23
2019-02-21T07:48:01.258Z,19.55
2019-02-21T07:49:06.264Z,20.35
2019-02-21T07:50:11.563Z,20.95
2019-02-21T07:51:16.539Z,20.00
2019-02-21T07:52:21.997Z,20.85
2019-02-21T07:53:27.537Z,20.32
2019-02-21T07:54:32.996Z,20.80
2019-02-21T07:55:38.192Z,20.55
2019-02-21T07:56:43.266Z,20.90
2019-02-21T07:57:48.274Z,20.37
2019-02-21T07:58:53.764Z,21.77
2019-02-21T07:59:58.711Z,20.37
2019-02-21T08:01:04.104Z,20.37
2019-02-21T08:02:09.149Z,21.95
2019-02-21T08:03:14.214Z,21.30
2019-02-21T08:04:19.392Z,20.82
2019-02-21T08:05:24.471Z,21.57
2019-02-21T08:06:29.597Z,21.52
2019-02-21T08:07:35.271Z,22.02
2019-02-21T08:08:40.622Z,21.73
2019-02-21T08:09:45.750Z,22.37
2019-02-21T08:10:51.259Z,21.87
2019-02-21T08:11:56.323Z,21.82
2019-02-21T08:13:01.375Z,20.88
2019-02-21T08:14:06.582Z,20.50
2019-02-21T08:15:12.186Z,21.12
2019-02-21T08:16:17.334Z,20.95
2019-02-21T08:17:22.531Z,22.07
2019-02-21T08:18:27.545Z,22.02
2019-02-21T08:19:32.679Z,21.73
2019-02-21T08:20:40.790Z,22.25
2019-02-21T08:21:44.901Z,21.80
2019-02-21T08:22:52.233Z,21.48
2019-02-21T08:23:59.211Z,21.00
2019-02-21T08:25:05.009Z,22.45
2019-02-21T08:26:10.019Z,21.75
2019-02-21T08:27:15.107Z,21.97
2019-02-21T08:28:20.415Z,21.23
2019-02-21T08:29:25.846Z,20.52
2019-02-21T08:30:32.942Z,21.70
2019-02-21T08:31:38.244Z,20.00
2019-02-21T08:33:17.833Z,21.25
2019-02-21T08:34:30.662Z,21.68
2019-02-21T08:35:35.963Z,21.27
2019-02-21T08:36:40.954Z,21.62
2019-02-21T08:37:45.923Z,21.65
2019-02-21T08:38:50.972Z,21.65
2019-02-21T08:39:56.282Z,19.87
2019-02-21T08:41:01.264Z,20.82
2019-02-21T08:42:06.555Z,21.40
2019-02-21T08:43:12.062Z,22.20
2019-02-21T08:44:17.388Z,20.65
2019-02-21T08:45:22.459Z,20.75
2019-02-21T08:46:27.566Z,22.05
2019-02-21T08:47:32.552Z,21.90
2019-02-21T08:48:40.298Z,20.52
2019-02-21T08:49:44.630Z,20.30
2019-02-21T08:50:49.789Z,22.75
2019-02-21T08:51:55.186Z,21.55
2019-02-21T08:53:01.120Z,21.10
2019-02-21T08:55:00.515Z,21.75
2019-02-21T08:56:04.690Z,22.27
2019-02-21T08:57:09.738Z,21.62
2019-02-21T08:58:14.851Z,23.45
2019-02-21T08:59:19.788Z,22.55
2019-02-21T09:00:24.739Z,20.97
2019-02-21T09:01:29.822Z,20.85
2019-02-21T09:02:36.030Z,23.15
2019-02-21T09:03:41.303Z,21.25
2019-02-21T09:04:46.637Z,23.22
2019-02-21T09:05:51.972Z,23.55
2019-02-21T09:06:57.317Z,22.07
2019-02-21T09:08:02.733Z,22.90
2019-02-21T09:09:07.873Z,22.80
2019-02-21T09:10:13.406Z,22.27
2019-02-21T09:11:19.775Z,21.77
2019-02-21T09:12:25.350Z,23.60
2019-02-21T09:13:30.636Z,22.73
2019-02-21T09:14:35.614Z,25.92
2019-02-21T09:15:41.269Z,24.00
2019-02-21T09:16:46.342Z,23.12
2019-02-21T09:17:53.993Z,25.95
2019-02-21T09:18:58.827Z,23.80
2019-02-21T09:20:03.900Z,22.40
2019-02-21T09:21:08.942Z,23.25
2019-02-21T09:22:13.965Z,21.50
2019-02-21T09:23:19.185Z,24.23
2019-02-21T09:24:37.464Z,23.42
2019-02-21T09:25:30.997Z,23.00
2019-02-21T09:26:36.112Z,23.30
2019-02-21T09:27:41.104Z,24.55
2019-02-21T09:28:46.088Z,22.40
2019-02-21T09:29:51.112Z,23.70
2019-02-21T09:30:56.634Z,22.55
2019-02-21T09:32:02.283Z,22.50
2019-02-21T09:33:16.960Z,22.65
2019-02-21T09:34:21.058Z,23.20
2019-02-21T09:35:20.896Z,23.52
2019-02-21T09:36:25.924Z,24.47
2019-02-21T09:37:31.134Z,24.98
2019-02-21T09:38:36.096Z,24.07
2019-02-21T09:39:41.291Z,24.50
2019-02-21T09:40:46.442Z,24.75
2019-02-21T09:41:51.736Z,24.63
2019-02-21T09:42:57.442Z,28.47
2019-02-21T09:44:02.503Z,24.85
2019-02-21T09:45:14.923Z,25.85
2019-02-21T09:46:20.291Z,26.15
2019-02-21T09:47:25.299Z,26.15
2019-02-21T09:48:30.257Z,25.92
2019-02-21T09:49:35.339Z,23.55
2019-02-21T09:50:40.398Z,26.25
2019-02-21T09:51:45.690Z,25.30
2019-02-21T09:52:50.650Z,28.70
2019-02-21T09:53:56.091Z,29.80
2019-02-21T09:55:01.625Z,26.30
2019-02-21T09:56:06.563Z,25.77
2019-02-21T09:57:13.576Z,25.97
2019-02-21T09:58:18.388Z,24.30
2019-02-21T09:59:23.643Z,27.15
2019-02-21T10:00:29.011Z,27.58
2019-02-21T10:01:33.935Z,24.90
2019-02-21T10:02:38.825Z,25.62
2019-02-21T10:03:44.376Z,29.48
2019-02-21T10:04:49.558Z,28.75
2019-02-21T10:05:54.869Z,28.35
2019-02-21T10:07:00.147Z,27.42
2019-02-21T10:08:05.089Z,27.98
2019-02-21T10:09:10.027Z,26.77
2019-02-21T10:10:16.656Z,28.52
2019-02-21T10:11:21.600Z,28.52
2019-02-21T10:12:26.530Z,27.93
2019-02-21T10:13:31.837Z,27.98
2019-02-21T10:14:36.926Z,27.87
2019-02-21T10:15:42.011Z,27.15
2019-02-21T10:16:49.621Z,27.55
2019-02-21T10:17:54.355Z,25.57
2019-02-21T10:18:59.293Z,27.65
2019-02-21T10:20:05.698Z,26.05
2019-02-21T10:21:10.855Z,27.00
2019-02-21T10:22:15.768Z,26.80
2019-02-21T10:23:20.737Z,26.87
2019-02-21T10:24:25.833Z,27.27
2019-02-21T10:25:31.043Z,26.85
2019-02-21T10:26:35.986Z,27.93
2019-02-21T10:27:40.970Z,26.33
2019-02-21T10:28:46.003Z,28.70
2019-02-21T10:29:50.992Z,27.80
2019-02-21T10:30:56.112Z,31.20
2019-02-21T10:32:01.676Z,28.05
2019-02-21T10:33:07.102Z,27.93
2019-02-21T10:34:12.200Z,29.23
2019-02-21T10:35:17.146Z,28.32
2019-02-21T10:36:22.059Z,27.32
2019-02-21T10:37:27.358Z,28.90
2019-02-21T10:38:32.687Z,31.82
2019-02-21T10:39:37.660Z,29.75
2019-02-21T10:40:43.283Z,28.65
2019-02-21T10:41:48.150Z,26.77
2019-02-21T10:42:53.561Z,27.60
2019-02-21T10:43:58.515Z,29.25
2019-02-21T10:45:04.893Z,30.17
2019-02-21T10:46:10.086Z,29.35
2019-02-21T10:47:15.018Z,28.15
2019-02-21T10:48:20.035Z,30.02
2019-02-21T10:49:25.287Z,29.87
2019-02-21T10:50:30.316Z,29.40
2019-02-21T10:51:35.341Z,30.60
2019-02-21T10:52:41.625Z,28.75
2019-02-21T10:53:47.355Z,29.80
2019-02-21T10:54:52.715Z,30.62
2019-02-21T10:55:57.709Z,30.20
2019-02-21T10:57:02.809Z,31.27
2019-02-21T10:58:08.170Z,30.10
2019-02-21T10:59:13.281Z,29.77
2019-02-21T11:00:21.279Z,29.87
2019-02-21T11:01:26.329Z,27.85
2019-02-21T11:02:31.324Z,29.57
2019-02-21T11:03:36.544Z,28.35
2019-02-21T11:04:42.428Z,30.90
2019-02-21T11:05:47.682Z,32.20
2019-02-21T11:06:53.059Z,27.87
2019-02-21T11:07:58.083Z,31.77
2019-02-21T11:09:03.278Z,28.17
2019-02-21T11:10:09.387Z,30.75
2019-02-21T11:11:17.135Z,30.45
2019-02-21T11:12:21.865Z,29.92
2019-02-21T11:13:27.123Z,28.98
2019-02-21T11:14:32.074Z,28.70
2019-02-21T11:15:37.493Z,28.67
2019-02-21T11:16:42.916Z,28.10
2019-02-21T11:17:47.907Z,26.85
2019-02-21T11:18:52.932Z,29.40
2019-02-21T11:19:57.964Z,31.48
2019-02-21T11:21:02.967Z,28.20
2019-02-21T11:22:08.007Z,28.62
2019-02-21T11:23:12.954Z,28.85
2019-02-21T11:24:18.020Z,30.27
2019-02-21T11:25:23.404Z,27.55
2019-02-21T11:26:29.114Z,28.40
2019-02-21T11:27:34.044Z,28.57
2019-02-21T11:28:39.049Z,27.58
2019-02-21T11:29:44.043Z,27.95
2019-02-21T11:30:49.125Z,26.33
2019-02-21T11:31:54.387Z,27.20
2019-02-21T11:32:59.378Z,25.75
2019-02-21T11:34:04.629Z,27.15
2019-02-21T11:35:09.737Z,28.07
2019-02-21T11:36:14.762Z,26.60
2019-02-21T11:37:19.702Z,27.40
2019-02-21T11:38:24.634Z,25.90
2019-02-21T11:39:30.024Z,28.65
2019-02-21T11:40:34.960Z,28.52
2019-02-21T11:41:40.376Z,26.85
2019-02-21T11:42:45.657Z,26.07
2019-02-21T11:43:50.751Z,25.45
2019-02-21T11:44:56.122Z,27.15
2019-02-21T11:46:01.707Z,25.72
2019-02-21T11:47:07.075Z,25.60
2019-02-21T11:48:12.241Z,24.47
2019-02-21T11:49:17.232Z,24.23
2019-02-21T11:50:22.234Z,24.80
2019-02-21T11:51:47.850Z,22.22
2019-02-21T11:52:52.744Z,24.70
2019-02-21T11:53:58.127Z,22.67
2019-02-21T11:55:03.407Z,23.25
2019-02-21T11:56:08.511Z,23.22
2019-02-21T11:57:14.419Z,20.77
2019-02-21T11:58:19.492Z,23.25
2019-02-21T11:59:24.467Z,21.60
2019-02-21T12:00:29.579Z,22.22
2019-02-21T12:01:34.660Z,22.13
2019-02-21T12:02:39.602Z,20.97
2019-02-21T12:03:44.598Z,21.87
2019-02-21T12:04:50.273Z,22.48
2019-02-21T12:05:55.247Z,21.15
2019-02-21T12:07:00.174Z,21.68
2019-02-21T12:08:05.371Z,22.55
2019-02-21T12:09:12.026Z,21.00
2019-02-21T12:10:17.342Z,20.77
2019-02-21T12:11:22.341Z,20.97
2019-02-21T12:12:27.278Z,18.67
2019-02-21T12:13:32.598Z,19.80
2019-02-21T12:14:37.669Z,20.70
2019-02-21T12:15:43.114Z,18.80
2019-02-21T12:16:48.073Z,20.57
2019-02-21T12:17:53.786Z,20.35
2019-02-21T12:18:59.303Z,18.82
2019-02-21T12:20:05.507Z,19.82
2019-02-21T12:21:10.920Z,18.02
2019-02-21T12:22:16.188Z,19.07
2019-02-21T12:23:21.140Z,17.73
2019-02-21T12:24:26.173Z,19.65
2019-02-21T12:25:31.591Z,20.17
2019-02-21T12:26:36.977Z,18.30
2019-02-21T12:27:42.238Z,18.57
2019-02-21T12:28:47.564Z,20.20
2019-02-21T12:29:52.578Z,17.95
2019-02-21T12:30:57.933Z,20.30
2019-02-21T12:32:03.075Z,19.95
2019-02-21T12:33:08.528Z,19.80
2019-02-21T12:34:13.586Z,20.17
2019-02-21T12:35:29.373Z,20.10
2019-02-21T12:36:26.107Z,17.67
2019-02-21T12:37:31.635Z,17.25
2019-02-21T12:38:36.548Z,18.02
2019-02-21T12:39:41.528Z,19.67
2019-02-21T12:40:46.858Z,18.65
2019-02-21T12:41:51.832Z,19.35
2019-02-21T12:42:57.096Z,18.27
2019-02-21T12:44:02.033Z,17.25
2019-02-21T12:45:09.129Z,18.62
2019-02-21T12:46:14.211Z,19.62
2019-02-21T12:47:19.605Z,17.85
2019-02-21T12:48:24.563Z,18.27
2019-02-21T12:49:30.126Z,17.95
2019-02-21T12:50:43.988Z,18.32
2019-02-21T12:51:45.331Z,19.20
2019-02-21T12:52:50.606Z,18.40
2019-02-21T12:53:55.812Z,17.17
2019-02-21T12:55:01.880Z,19.05
2019-02-21T12:56:06.947Z,16.77
2019-02-21T12:57:12.287Z,15.95
2019-02-21T12:58:17.287Z,16.17
2019-02-21T12:59:22.305Z,18.00
2019-02-21T13:00:27.247Z,19.70
2019-02-21T13:01:32.190Z,18.40
2019-02-21T13:02:37.746Z,18.70
2019-02-21T13:03:42.661Z,18.60
2019-02-21T13:04:47.682Z,18.52
2019-02-21T13:05:52.709Z,18.45
2019-02-21T13:06:58.015Z,17.77
2019-02-21T13:08:03.531Z,18.15
2019-02-21T13:09:09.005Z,18.73
2019-02-21T13:10:15.748Z,16.87
2019-02-21T13:11:21.034Z,16.55
2019-02-21T13:12:26.068Z,15.80
2019-02-21T13:13:31.467Z,17.02
2019-02-21T13:14:36.729Z,18.32
2019-02-21T13:15:41.862Z,18.45
2019-02-21T13:16:47.176Z,17.12
2019-02-21T13:17:52.525Z,16.23
2019-02-21T13:18:57.520Z,15.23
2019-02-21T13:20:02.574Z,15.30
2019-02-21T13:21:08.098Z,16.93
2019-02-21T13:22:13.089Z,14.03
2019-02-21T13:23:18.770Z,14.65
2019-02-21T13:24:23.780Z,13.28
2019-02-21T13:25:28.974Z,15.03
2019-02-21T13:26:34.073Z,16.35
2019-02-21T13:27:39.211Z,14.50
2019-02-21T13:28:44.339Z,14.63
2019-02-21T13:29:49.604Z,14.25
2019-02-21T13:30:55.296Z,15.70
2019-02-21T13:32:00.534Z,16.30
2019-02-21T13:33:05.529Z,15.60
2019-02-21T13:34:10.630Z,17.00
2019-02-21T13:35:16.531Z,16.73
2019-02-21T13:36:22.128Z,17.37
2019-02-21T13:37:29.125Z,17.75
2019-02-21T13:38:33.774Z,15.93
2019-02-21T13:39:38.812Z,17.75
2019-02-21T13:40:43.822Z,17.23
2019-02-21T13:41:49.095Z,18.48
2019-02-21T13:42:54.202Z,17.90
2019-02-21T13:43:59.261Z,18.45
2019-02-21T13:45:04.781Z,18.12
2019-02-21T13:46:09.830Z,17.85
2019-02-21T13:47:15.214Z,18.27
2019-02-21T13:48:20.627Z,17.80
2019-02-21T13:49:26.002Z,17.87
2019-02-21T13:50:31.531Z,18.48
2019-02-21T13:51:36.557Z,20.10
2019-02-21T13:52:41.663Z,21.90
2019-02-21T13:53:47.107Z,18.82
2019-02-21T13:54:54.143Z,18.95
2019-02-21T13:55:59.119Z,17.12
2019-02-21T13:57:04.228Z,19.30
2019-02-21T13:58:09.614Z,18.52
2019-02-21T13:59:14.725Z,19.15
2019-02-21T14:00:20.237Z,18.35
2019-02-21T14:01:25.590Z,18.90
2019-02-21T14:02:30.666Z,18.30
2019-02-21T14:03:35.727Z,18.45
2019-02-21T14:04:41.053Z,19.20
2019-02-21T14:05:45.998Z,21.02
2019-02-21T14:06:50.970Z,20.65
2019-02-21T14:07:55.925Z,19.32
2019-02-21T14:09:00.852Z,18.75
2019-02-21T14:10:06.160Z,20.10
2019-02-21T14:11:11.186Z,20.40
2019-02-21T14:12:16.390Z,19.10
2019-02-21T14:13:21.812Z,18.45
2019-02-21T14:14:27.329Z,19.20
2019-02-21T14:15:32.417Z,19.48
2019-02-21T14:16:46.216Z,22.80
2019-02-21T14:17:46.639Z,22.00